Time;durP1;ratioP1;P1;durP2;ratioP2;P2;SDS_P1;SDS_P2;PMS_P1;PMS_P2;Temp;Humidity;BMP_temperature;BMP_pressure;BME280_temperature;BME280_humidity;BME280_pressure;Samples;Min_cycle;Max_cycle;Signal;HPM_P1;HPM_P2
2021/07/22 00:01:47;;;;;;;1.30;1.20;;;;;;;17.92;54.03;101323.75;5084519;28;20207;-67
2021/07/22 00:04:16;;;;;;;1.37;1.20;;;;;;;17.99;53.77;101330.34;5081980;28;20251;-67
2021/07/22 00:06:44;;;;;;;2.70;1.10;;;;;;;17.99;53.79;101328.50;5087697;28;20203;-67
2021/07/22 00:09:13;;;;;;;4.23;1.30;;;;;;;18.00;54.14;101329.34;5089480;28;20208;-67
2021/07/22 00:11:45;;;;;;;1.20;1.07;;;;;;;18.04;54.17;101322.63;5074669;28;20185;-66
2021/07/22 00:14:15;;;;;;;2.77;1.13;;;;;;;18.04;53.51;101325.34;5079579;28;20201;-73
2021/07/22 00:16:45;;;;;;;2.40;1.03;;;;;;;18.05;53.96;101329.78;5072708;28;20696;-66
2021/07/22 00:19:14;;;;;;;2.27;1.27;;;;;;;18.05;54.24;101324.34;5076519;28;20350;-72
2021/07/22 00:21:42;;;;;;;3.40;1.67;;;;;;;18.09;53.98;101328.53;5083552;28;20609;-73
2021/07/22 00:24:10;;;;;;;1.20;1.10;;;;;;;18.09;54.05;101325.81;5068032;28;20198;-67
2021/07/22 00:26:40;;;;;;;2.30;1.10;;;;;;;18.06;53.65;101326.09;5072585;28;20201;-72
2021/07/22 00:29:08;;;;;;;1.27;1.17;;;;;;;18.13;54.06;101326.41;5080333;28;20220;-73
2021/07/22 00:31:36;;;;;;;1.30;1.20;;;;;;;17.95;53.51;101296.28;5071674;28;20197;-72
2021/07/22 00:34:07;;;;;;;2.63;1.40;;;;;;;18.13;53.61;101331.84;5086114;28;20199;-67
2021/07/22 00:36:36;;;;;;;1.10;1.00;;;;;;;17.39;53.54;101209.81;5087649;28;20227;-67
2021/07/22 00:39:04;;;;;;;1.53;1.23;;;;;;;18.10;53.88;101322.09;5087099;28;20232;-72
2021/07/22 00:41:40;;;;;;;1.37;1.07;;;;;;;17.93;53.74;101309.16;5076934;28;20204;-73
2021/07/22 00:44:10;;;;;;;1.47;1.30;;;;;;;18.08;54.02;101334.97;5087063;28;20875;-67
2021/07/22 00:46:38;;;;;;;1.33;1.23;;;;;;;18.09;53.80;101336.69;5081463;28;20266;-67
2021/07/22 00:49:11;;;;;;;1.67;1.33;;;;;;;18.07;53.39;101338.69;5081956;28;20204;-66
2021/07/22 00:51:40;;;;;;;1.40;1.20;;;;;;;18.05;53.84;101335.22;5088184;28;20227;-72
2021/07/22 00:54:10;;;;;;;1.30;1.20;;;;;;;18.01;53.65;101325.63;5089311;28;20209;-72
2021/07/22 00:56:41;;;;;;;2.20;1.23;;;;;;;18.00;54.20;101338.38;5084799;28;20197;-67
2021/07/22 00:59:11;;;;;;;1.40;1.17;;;;;;;17.97;53.75;101332.34;5083396;28;20241;-67
2021/07/22 01:01:40;;;;;;;2.30;1.20;;;;;;;17.87;54.31;101337.75;5087214;28;20203;-67
2021/07/22 01:04:10;;;;;;;3.03;1.50;;;;;;;17.78;54.54;101326.84;5073841;28;20193;-66
2021/07/22 01:06:38;;;;;;;1.83;1.63;;;;;;;17.69;54.46;101323.94;5084430;28;20211;-72
2021/07/22 01:09:15;;;;;;;1.47;1.30;;;;;;;17.24;54.96;101276.34;5087490;28;20250;-72
2021/07/22 01:11:49;;;;;;;1.13;1.13;;;;;;;17.46;55.73;101326.94;5087275;28;20201;-66
2021/07/22 01:14:17;;;;;;;2.83;1.30;;;;;;;17.43;55.58;101330.75;5089202;28;20627;-72
2021/07/22 01:16:49;;;;;;;3.23;1.20;;;;;;;17.45;55.04;101334.22;5091993;28;20181;-67
2021/07/22 01:19:18;;;;;;;3.43;1.30;;;;;;;17.36;55.79;101322.28;5081378;28;20596;-66
2021/07/22 01:21:47;;;;;;;2.23;1.20;;;;;;;17.37;54.75;101323.16;5087048;28;20255;-72
2021/07/22 01:24:17;;;;;;;1.80;1.17;;;;;;;17.32;55.56;101315.41;5099255;28;20653;-72
2021/07/22 01:27:03;;;;;;;1.87;1.30;;;;;;;17.22;56.38;101327.19;5078861;28;20257;-66
2021/07/22 01:29:43;;;;;;;1.83;1.37;;;;;;;17.17;55.89;101322.19;5093578;28;20204;-66
2021/07/22 01:32:12;;;;;;;2.10;1.40;;;;;;;17.08;55.76;101315.66;5080095;28;20204;-68
2021/07/22 01:34:41;;;;;;;1.20;1.20;;;;;;;17.07;55.97;101324.81;5092220;28;20205;-72
2021/07/22 01:37:13;;;;;;;1.03;1.00;;;;;;;17.04;56.23;101327.78;5091517;28;20204;-72
2021/07/22 01:39:43;;;;;;;1.20;1.10;;;;;;;17.02;55.90;101318.06;5091865;28;20230;-72
2021/07/22 01:42:12;;;;;;;1.50;1.10;;;;;;;16.87;56.26;101298.53;5087856;28;20201;-72
2021/07/22 01:44:42;;;;;;;3.27;1.20;;;;;;;16.76;55.77;101279.56;5071733;28;20201;-72
2021/07/22 01:47:10;;;;;;;2.60;0.90;;;;;;;16.98;55.73;101322.03;5085929;28;20279;-72
2021/07/22 01:49:40;;;;;;;1.40;1.30;;;;;;;16.50;56.08;101249.19;5096253;28;20212;-72
2021/07/22 01:52:08;;;;;;;2.00;1.37;;;;;;;16.87;56.08;101320.22;5091719;28;20196;-72
2021/07/22 01:54:41;;;;;;;1.00;1.00;;;;;;;16.64;56.89;101307.72;5090828;28;20208;-72
2021/07/22 01:57:09;;;;;;;1.53;1.33;;;;;;;16.69;56.52;101321.78;5090403;28;20291;-66
2021/07/22 01:59:41;;;;;;;1.13;1.10;;;;;;;16.64;56.68;101313.13;5083696;28;20358;-66
2021/07/22 02:02:11;;;;;;;2.17;1.30;;;;;;;16.55;56.92;101322.06;5085388;28;20213;-67
2021/07/22 02:04:42;;;;;;;1.70;1.37;;;;;;;16.52;57.31;101322.28;5091221;28;20734;-67
2021/07/22 02:07:11;;;;;;;1.77;1.30;;;;;;;16.49;56.89;101323.41;5091883;28;20207;-66
2021/07/22 02:09:57;;;;;;;1.73;1.40;;;;;;;16.23;57.29;101282.22;5090959;28;20220;-66
2021/07/22 02:12:25;;;;;;;2.03;1.27;;;;;;;16.38;57.77;101313.47;5078162;28;20201;-66
2021/07/22 02:14:53;;;;;;;1.53;1.20;;;;;;;16.33;58.27;101321.13;5090223;28;20207;-66
2021/07/22 02:17:22;;;;;;;2.27;1.30;;;;;;;16.31;57.91;101320.38;5092829;28;20212;-66
2021/07/22 02:19:51;;;;;;;1.30;1.20;;;;;;;16.22;57.14;101307.56;5077201;28;20791;-66
2021/07/22 02:22:20;;;;;;;1.30;1.20;;;;;;;16.28;57.89;101319.78;5091143;28;20232;-66
2021/07/22 02:24:58;;;;;;;2.30;1.30;;;;;;;16.18;57.72;101316.94;5085302;28;20200;-66
2021/07/22 02:27:36;;;;;;;2.10;1.20;;;;;;;16.19;58.21;101326.78;5083447;28;20204;-66
2021/07/22 02:30:06;;;;;;;1.47;1.13;;;;;;;16.07;57.84;101308.84;5091137;28;20196;-65
2021/07/22 02:32:35;;;;;;;1.47;1.30;;;;;;;16.15;58.01;101320.78;5091594;28;20196;-65
2021/07/22 02:35:05;;;;;;;1.00;1.00;;;;;;;16.12;58.42;101328.28;5089597;28;20250;-66
2021/07/22 02:37:56;;;;;;;1.30;1.20;;;;;;;16.00;59.27;101316.63;5093706;28;20209;-66
2021/07/22 02:40:29;;;;;;;1.40;1.30;;;;;;;16.01;59.28;101328.31;5087832;28;20241;-65
2021/07/22 02:42:57;;;;;;;1.33;1.23;;;;;;;15.97;59.13;101329.56;5089628;28;20210;-66
2021/07/22 02:45:27;;;;;;;3.30;1.40;;;;;;;15.93;59.31;101328.94;5089327;28;20193;-67
2021/07/22 02:47:58;;;;;;;1.23;1.13;;;;;;;15.91;59.09;101330.88;5089309;28;20218;-67
2021/07/22 02:50:29;;;;;;;1.47;1.37;;;;;;;15.83;58.77;101317.97;5089235;28;20668;-68
2021/07/22 02:53:03;;;;;;;1.80;1.20;;;;;;;15.97;58.99;101324.13;5089966;28;20217;-66
2021/07/22 02:55:37;;;;;;;2.07;1.43;;;;;;;16.01;58.34;101331.03;5084844;28;20202;-72
2021/07/22 02:58:06;;;;;;;2.43;1.30;;;;;;;16.06;58.89;101339.63;5082341;28;20196;-71
2021/07/22 03:00:42;;;;;;;2.27;1.67;;;;;;;16.25;59.83;101349.84;5081463;28;20219;-66
2021/07/22 03:03:13;;;;;;;2.80;1.43;;;;;;;16.44;60.91;101339.19;5082549;28;20200;-65
2021/07/22 03:05:42;;;;;;;2.17;1.47;;;;;;;16.74;59.49;101335.81;5080051;28;20239;-71
2021/07/22 03:08:12;;;;;;;3.17;1.30;;;;;;;16.94;60.38;101331.41;5077226;28;20197;-71
2021/07/22 03:10:43;;;;;;;3.07;1.43;;;;;;;17.00;60.32;101292.91;5091405;28;20528;-66
2021/07/22 03:13:11;;;;;;;1.47;1.30;;;;;;;17.17;59.60;101289.59;5089266;28;20444;-71
2021/07/22 03:15:41;;;;;;;1.63;1.20;;;;;;;17.33;58.97;101294.53;5089091;28;20657;-67
2021/07/22 03:18:29;;;;;;;1.47;1.33;;;;;;;17.61;58.86;101322.84;5078479;28;20243;-66
2021/07/22 03:21:00;;;;;;;1.63;1.40;;;;;;;17.57;59.04;101327.69;5089250;28;20232;-66
2021/07/22 03:23:30;;;;;;;1.23;1.10;;;;;;;17.60;59.15;101318.41;5075716;28;20201;-71
2021/07/22 03:26:00;;;;;;;1.40;1.30;;;;;;;17.49;59.33;101330.25;5089396;28;20204;-66
2021/07/22 03:28:39;;;;;;;4.47;1.23;;;;;;;17.40;60.08;101320.16;5070294;28;20236;-67
2021/07/22 03:31:29;;;;;;;1.60;1.40;;;;;;;17.38;60.35;101324.88;5073869;28;20209;-66
2021/07/22 03:34:14;;;;;;;1.83;1.40;;;;;;;17.43;60.34;101329.88;5093570;28;20291;-66
2021/07/22 03:36:50;;;;;;;3.10;1.20;;;;;;;17.53;60.72;101330.81;5089565;28;20876;-66
2021/07/22 03:39:20;;;;;;;1.53;1.40;;;;;;;17.58;61.16;101334.00;5088827;28;20207;-66
2021/07/22 03:41:49;;;;;;;3.27;1.20;;;;;;;17.66;60.60;101326.88;5090969;28;20231;-71
2021/07/22 03:44:53;;;;;;;1.90;1.50;;;;;;;17.61;61.29;101321.00;5049107;28;20677;-72
2021/07/22 03:47:22;;;;;;;1.77;1.40;;;;;;;17.52;61.70;101316.38;5063840;28;20702;-72
2021/07/22 03:49:57;;;;;;;2.47;1.30;;;;;;;17.57;61.64;101319.56;5089417;28;20207;-72
2021/07/22 03:52:39;;;;;;;2.10;1.57;;;;;;;17.53;61.55;101318.09;5090686;28;20249;-71
2021/07/22 03:55:09;;;;;;;3.30;1.50;;;;;;;17.48;62.47;101322.22;5089541;28;20205;-72
2021/07/22 03:58:12;;;;;;;1.30;1.20;;;;;;;17.60;62.15;101329.28;5077202;28;20222;-66
2021/07/22 04:00:54;;;;;;;1.87;1.40;;;;;;;17.60;62.50;101318.41;5074525;28;20316;-66
2021/07/22 04:03:22;;;;;;;2.33;1.50;;;;;;;17.67;63.10;101320.50;5090747;28;20691;-66
2021/07/22 04:05:52;;;;;;;2.43;1.70;;;;;;;17.77;63.20;101327.84;5090391;28;20189;-66
2021/07/22 04:08:22;;;;;;;1.93;1.20;;;;;;;17.88;62.48;101325.88;5089030;28;20590;-67
2021/07/22 04:11:01;;;;;;;1.33;1.10;;;;;;;17.95;62.22;101312.59;5090512;28;20208;-66
2021/07/22 04:13:49;;;;;;;1.70;1.43;;;;;;;18.04;63.16;101317.19;5090252;28;20223;-66
2021/07/22 04:16:44;;;;;;;2.90;1.30;;;;;;;17.93;63.07;101299.16;5067724;28;20274;-66
2021/07/22 04:19:33;;;;;;;1.50;1.40;;;;;;;17.82;63.91;101263.94;5067562;28;20240;-66
2021/07/22 04:22:15;;;;;;;2.00;1.67;;;;;;;18.27;63.24;101313.25;5085351;28;20232;-66
2021/07/22 04:25:04;;;;;;;3.07;1.60;;;;;;;18.45;63.01;101310.72;5086809;28;20201;-66
2021/07/22 04:27:53;;;;;;;2.60;1.77;;;;;;;18.63;63.30;101307.34;5074647;28;20189;-66
2021/07/22 04:30:25;;;;;;;4.33;2.00;;;;;;;18.82;62.89;101301.91;5086954;28;20193;-66
2021/07/22 04:33:09;;;;;;;1.87;1.67;;;;;;;18.99;61.81;101297.63;5084632;28;20208;-65
2021/07/22 04:36:04;;;;;;;2.40;1.67;;;;;;;19.20;60.43;101303.72;5074930;28;20212;-67
2021/07/22 04:38:51;;;;;;;2.70;1.80;;;;;;;19.38;59.11;101296.53;5088428;28;20219;-67
2021/07/22 04:41:40;;;;;;;3.43;2.07;;;;;;;19.52;58.83;101298.78;5076734;28;20233;-73
2021/07/22 04:44:27;;;;;;;3.27;2.00;;;;;;;19.61;59.47;101299.81;5077478;28;20211;-73
2021/07/22 04:47:10;;;;;;;3.43;1.73;;;;;;;19.77;56.29;101300.00;5087158;28;20212;-73
2021/07/22 04:49:49;;;;;;;7.57;1.90;;;;;;;19.86;57.43;101292.78;5076524;28;20204;-73
2021/07/22 04:52:38;;;;;;;3.20;2.03;;;;;;;19.93;58.16;101299.38;5089236;28;20236;-73
2021/07/22 04:55:11;;;;;;;4.27;1.97;;;;;;;20.04;57.92;101301.91;5092260;28;20352;-73
2021/07/22 04:57:39;;;;;;;2.83;1.80;;;;;;;20.12;56.72;101299.25;5089847;28;20207;-73
2021/07/22 05:00:11;;;;;;;4.23;1.97;;;;;;;20.13;57.04;101278.31;5081741;28;20200;-72
2021/07/22 05:02:46;;;;;;;7.40;1.90;;;;;;;20.27;57.42;101290.59;5091833;28;20295;-72
2021/07/22 05:05:14;;;;;;;3.77;2.20;;;;;;;20.28;58.68;101284.09;5091609;28;20197;-72
2021/07/22 05:08:03;;;;;;;2.50;2.10;;;;;;;20.22;58.98;101266.50;5092627;28;20212;-73
2021/07/22 05:10:44;;;;;;;2.77;2.00;;;;;;;20.57;56.97;101295.72;5091977;28;20200;-67
2021/07/22 05:13:24;;;;;;;2.53;2.00;;;;;;;20.67;58.52;101282.84;5092830;28;20279;-67
2021/07/22 05:16:10;;;;;;;3.33;1.70;;;;;;;20.87;57.34;101278.06;5075097;28;20695;-72
2021/07/22 05:18:56;;;;;;;3.47;2.00;;;;;;;21.02;57.56;101279.22;5082365;28;20208;-72
2021/07/22 05:21:41;;;;;;;3.40;2.03;;;;;;;21.24;57.33;101269.69;5087432;28;20720;-72
2021/07/22 05:24:24;;;;;;;4.00;2.10;;;;;;;21.44;56.98;101264.88;5086381;28;20282;-71
2021/07/22 05:26:58;;;;;;;2.57;2.03;;;;;;;21.58;57.38;101268.88;5079749;28;20570;-72
2021/07/22 05:29:52;;;;;;;3.97;2.10;;;;;;;21.88;57.30;101276.53;5090248;28;20321;-72
2021/07/22 05:32:41;;;;;;;3.13;2.20;;;;;;;21.99;58.66;101275.38;5078542;28;20212;-72
2021/07/22 05:35:30;;;;;;;4.43;2.10;;;;;;;22.26;58.11;101277.03;5092041;28;20244;-72
2021/07/22 05:38:17;;;;;;;3.30;2.20;;;;;;;22.50;56.33;101266.16;5093065;28;20556;-72
2021/07/22 05:40:45;;;;;;;3.00;2.10;;;;;;;22.75;55.12;101274.41;5091602;28;20228;-72
2021/07/22 05:43:13;;;;;;;5.07;2.03;;;;;;;22.83;56.02;101260.72;5082206;28;20198;-72
2021/07/22 05:45:41;;;;;;;4.97;2.07;;;;;;;22.99;55.70;101268.09;5086254;28;20706;-72
2021/07/22 05:48:09;;;;;;;3.97;2.50;;;;;;;23.22;55.26;101258.13;5080778;28;20220;-72
2021/07/22 05:50:39;;;;;;;3.07;2.30;;;;;;;23.23;54.34;101225.06;5091949;28;20196;-72
2021/07/22 05:53:07;;;;;;;2.20;2.00;;;;;;;23.67;54.16;101264.94;5092474;28;20657;-72
2021/07/22 05:55:35;;;;;;;4.23;2.07;;;;;;;23.75;54.08;101254.78;5091944;28;20222;-72
2021/07/22 05:58:04;;;;;;;2.60;2.10;;;;;;;24.10;52.70;101266.28;5085926;28;20200;-73
2021/07/22 06:00:32;;;;;;;4.13;2.30;;;;;;;24.37;51.35;101265.81;5083571;28;20224;-71
2021/07/22 06:03:00;;;;;;;4.83;1.93;;;;;;;24.54;51.58;101268.47;5088584;28;20216;-72
2021/07/22 06:05:28;;;;;;;4.97;2.00;;;;;;;24.77;51.16;101270.16;5080741;28;20239;-71
2021/07/22 06:07:58;;;;;;;3.55;2.22;;;;;;;25.05;50.41;101264.13;5089857;28;20208;-71
2021/07/22 06:10:26;;;;;;;3.55;2.10;;;;;;;25.39;48.95;101261.72;5081319;28;20682;-65
2021/07/22 06:12:55;;;;;;;3.67;2.33;;;;;;;25.58;48.82;101262.22;5089207;28;20193;-66
2021/07/22 06:15:24;;;;;;;4.53;2.30;;;;;;;25.57;48.90;101261.38;5091382;28;20665;-66
2021/07/22 06:17:52;;;;;;;3.13;2.25;;;;;;;25.73;48.96;101256.75;5090033;28;20279;-66
2021/07/22 06:20:20;;;;;;;2.97;2.08;;;;;;;25.81;49.00;101263.00;5079741;28;20219;-71
2021/07/22 06:22:48;;;;;;;4.20;2.58;;;;;;;26.06;48.63;101260.81;5091460;28;20225;-69
2021/07/22 06:25:18;;;;;;;2.60;1.98;;;;;;;26.28;47.97;101257.03;5091548;28;20196;-65
2021/07/22 06:27:46;;;;;;;2.40;2.20;;;;;;;26.47;47.43;101258.34;5091781;28;20239;-72
2021/07/22 06:30:14;;;;;;;3.08;2.03;;;;;;;26.48;46.22;101231.66;5075815;28;20209;-72
2021/07/22 06:32:43;;;;;;;3.88;2.25;;;;;;;27.04;45.81;101257.44;5079353;28;20201;-71
2021/07/22 06:35:11;;;;;;;3.58;2.13;;;;;;;27.30;44.62;101251.28;5091436;28;20192;-72
2021/07/22 06:37:44;;;;;;;2.33;1.92;;;;;;;27.43;44.38;101256.88;5084292;28;20236;-72
2021/07/22 06:40:13;;;;;;;2.33;1.85;;;;;;;27.54;42.35;101250.78;5084752;28;20205;-72
2021/07/22 06:42:43;;;;;;;4.07;1.60;;;;;;;27.54;41.17;101250.78;5076984;28;20597;-72
2021/07/22 06:45:13;;;;;;;2.80;1.98;;;;;;;27.70;41.53;101255.19;5078780;28;20700;-72
2021/07/22 06:47:41;;;;;;;2.75;1.80;;;;;;;27.81;40.94;101253.75;5089908;28;20196;-72
2021/07/22 06:50:11;;;;;;;2.40;1.98;;;;;;;27.85;39.98;101249.50;5092190;28;20227;-72
2021/07/22 06:52:39;;;;;;;3.92;2.15;;;;;;;27.77;39.91;101252.47;5091584;28;20195;-65
2021/07/22 06:55:08;;;;;;;2.15;1.70;;;;;;;27.92;40.52;101255.94;5080484;28;20549;-67
2021/07/22 06:57:37;;;;;;;2.67;2.10;;;;;;;28.06;39.97;101252.16;5088386;28;20637;-67
2021/07/22 07:00:07;;;;;;;2.53;2.00;;;;;;;28.17;39.66;101250.75;5082896;28;20209;-67
2021/07/22 07:02:35;;;;;;;3.45;1.95;;;;;;;28.21;39.81;101251.19;5085777;28;20637;-67
2021/07/22 07:05:06;;;;;;;4.45;2.15;;;;;;;28.61;39.50;101253.00;5079705;28;20228;-67
2021/07/22 07:07:38;;;;;;;6.43;2.10;;;;;;;28.38;39.23;101187.03;5091574;28;20245;-67
2021/07/22 07:10:07;;;;;;;3.55;1.98;;;;;;;28.98;38.77;101261.81;5090927;28;20212;-67
2021/07/22 07:12:36;;;;;;;4.50;1.88;;;;;;;29.04;39.06;101244.34;5091459;28;20307;-67
2021/07/22 07:15:07;;;;;;;2.72;1.98;;;;;;;29.17;39.13;101243.50;5084405;28;20200;-72
2021/07/22 07:17:36;;;;;;;3.53;2.10;;;;;;;29.33;38.77;101246.66;5071524;28;20209;-72
2021/07/22 07:20:04;;;;;;;3.35;1.90;;;;;;;29.63;38.23;101248.97;5084611;28;20205;-67
2021/07/22 07:22:32;;;;;;;4.20;2.10;;;;;;;29.46;38.09;101248.63;5083369;28;20255;-72
2021/07/22 07:25:01;;;;;;;5.35;2.40;;;;;;;29.63;37.53;101252.59;5086375;28;20194;-67
2021/07/22 07:27:29;;;;;;;3.53;2.00;;;;;;;29.62;38.03;101248.13;5082059;28;20215;-72
2021/07/22 07:29:58;;;;;;;2.35;2.00;;;;;;;29.76;37.01;101237.88;5090649;28;20208;-67
2021/07/22 07:32:28;;;;;;;2.80;1.77;;;;;;;29.66;38.02;101241.09;5076676;28;20193;-67
2021/07/22 07:34:56;;;;;;;5.60;2.00;;;;;;;29.81;37.03;101240.84;5078842;28;20212;-72
2021/07/22 07:37:24;;;;;;;4.07;2.28;;;;;;;29.92;37.67;101248.47;5084842;28;20292;-71
2021/07/22 07:39:52;;;;;;;2.47;2.03;;;;;;;30.13;36.15;101232.66;5081182;28;20211;-72
2021/07/22 07:42:20;;;;;;;2.55;2.05;;;;;;;30.02;36.30;101241.63;5089627;28;20641;-66
2021/07/22 07:44:49;;;;;;;3.28;2.08;;;;;;;30.35;36.14;101236.81;5080952;28;20292;-66
2021/07/22 07:47:17;;;;;;;2.45;2.20;;;;;;;30.49;36.31;101234.78;5085557;28;20680;-71
2021/07/22 07:49:46;;;;;;;2.13;1.83;;;;;;;30.33;36.41;101243.66;5090850;28;20189;-72
2021/07/22 07:52:14;;;;;;;2.95;1.95;;;;;;;30.54;35.97;101229.41;5090698;28;20219;-67
2021/07/22 07:54:43;;;;;;;2.83;2.25;;;;;;;30.76;35.56;101235.50;5090713;28;20257;-67
2021/07/22 07:57:11;;;;;;;2.80;2.15;;;;;;;30.80;35.61;101226.47;5090968;28;20207;-66
2021/07/22 07:59:39;;;;;;;2.22;2.03;;;;;;;30.96;35.64;101216.75;5084921;28;20239;-66
2021/07/22 08:02:08;;;;;;;2.80;2.13;;;;;;;31.11;35.01;101231.13;5082712;28;20568;-66
2021/07/22 08:04:36;;;;;;;3.08;2.00;;;;;;;31.19;35.05;101219.75;5076211;28;20685;-67
2021/07/22 08:07:06;;;;;;;8.25;1.90;;;;;;;31.29;34.48;101215.63;5090825;28;20287;-72
2021/07/22 08:09:34;;;;;;;3.13;2.28;;;;;;;31.24;33.54;101221.88;5089039;28;20204;-72
2021/07/22 08:12:06;;;;;;;2.10;1.83;;;;;;;31.32;33.38;101192.97;5090211;28;20233;-72
2021/07/22 08:14:36;;;;;;;2.97;2.03;;;;;;;31.71;33.27;101214.75;5088581;28;20200;-72
2021/07/22 08:17:05;;;;;;;3.42;1.80;;;;;;;31.68;33.03;101192.97;5090876;28;20262;-72
2021/07/22 08:19:35;;;;;;;2.28;1.80;;;;;;;31.89;33.32;101213.06;5088338;28;20645;-67
2021/07/22 08:22:04;;;;;;;3.40;2.05;;;;;;;31.84;33.16;101201.78;5076949;28;20297;-72
2021/07/22 08:24:33;;;;;;;3.45;2.08;;;;;;;31.74;33.44;101202.34;5089968;28;20271;-72
2021/07/22 08:27:01;;;;;;;4.47;2.00;;;;;;;31.65;32.71;101192.59;5089826;28;20193;-67
2021/07/22 08:29:30;;;;;;;3.08;1.90;;;;;;;31.65;32.27;101190.66;5076854;28;20301;-67
2021/07/22 08:31:58;;;;;;;2.35;1.67;;;;;;;32.03;31.42;101197.91;5075264;28;20192;-67
2021/07/22 08:34:26;;;;;;;2.97;2.20;;;;;;;32.02;32.46;101201.75;5090225;28;20188;-67
2021/07/22 08:36:55;;;;;;;2.28;1.80;;;;;;;31.99;31.84;101193.91;5089768;28;20219;-67
2021/07/22 08:39:23;;;;;;;5.30;2.40;;;;;;;31.98;32.36;101197.75;5090223;28;20196;-67
2021/07/22 08:41:52;;;;;;;14.00;6.15;;;;;;;32.28;32.29;101195.88;5090011;28;20211;-67
2021/07/22 08:44:20;;;;;;;3.22;2.40;;;;;;;32.61;32.20;101188.94;5088476;28;20307;-72
2021/07/22 08:46:49;;;;;;;2.28;1.80;;;;;;;32.63;31.64;101190.41;5089774;28;20673;-72
2021/07/22 08:49:17;;;;;;;4.28;2.60;;;;;;;32.52;30.95;101188.44;5074256;28;20226;-72
2021/07/22 08:51:45;;;;;;;5.07;2.00;;;;;;;32.55;30.97;101184.34;5090314;28;20291;-67
2021/07/22 08:54:14;;;;;;;6.78;2.40;;;;;;;32.59;31.32;101188.34;5089954;28;20309;-72
2021/07/22 08:56:42;;;;;;;2.83;2.00;;;;;;;32.21;31.03;101189.53;5090135;28;20653;-72
2021/07/22 08:59:12;;;;;;;4.38;1.80;;;;;;;32.47;31.37;101179.13;5087979;28;20292;-72
2021/07/22 09:01:44;;;;;;;2.55;1.88;;;;;;;32.51;30.66;101185.91;5078587;28;20208;-72
2021/07/22 09:04:12;;;;;;;3.38;1.65;;;;;;;32.33;29.90;101184.88;5089505;28;20233;-72
2021/07/22 09:06:40;;;;;;;2.88;1.80;;;;;;;32.55;31.33;101176.84;5090259;28;20208;-72
2021/07/22 09:09:13;;;;;;;2.85;1.60;;;;;;;32.68;29.82;101175.78;5088433;28;20200;-72
2021/07/22 09:11:55;;;;;;;4.03;1.85;;;;;;;32.75;31.62;101159.81;5076081;28;20204;-67
2021/07/22 09:14:26;;;;;;;3.33;2.08;;;;;;;33.15;30.84;101167.50;5075264;28;20205;-66
2021/07/22 09:16:54;;;;;;;3.17;1.70;;;;;;;33.35;30.78;101151.25;5090149;28;20208;-67
2021/07/22 09:19:35;;;;;;;2.35;1.80;;;;;;;32.90;29.66;101128.75;5087880;28;20197;-66
2021/07/22 09:22:05;;;;;;;1.98;1.75;;;;;;;33.19;30.50;101157.56;5088238;28;20324;-67
2021/07/22 09:24:50;;;;;;;2.70;1.70;;;;;;;33.22;28.15;101144.00;5089551;28;20316;-67
2021/07/22 09:27:43;;;;;;;1.60;1.50;;;;;;;33.56;30.24;101152.56;5089706;28;20197;-67
2021/07/22 09:30:17;;;;;;;3.00;1.80;;;;;;;33.55;28.72;101140.56;5058915;28;20618;-72
2021/07/22 09:32:48;;;;;;;2.30;1.63;;;;;;;33.61;29.18;101153.50;5077605;28;20192;-67
2021/07/22 09:35:18;;;;;;;2.55;1.83;;;;;;;33.81;29.40;101155.03;5089479;28;20251;-67
2021/07/22 09:37:49;;;;;;;4.65;2.03;;;;;;;33.50;28.91;101154.41;5092039;28;20347;-72
2021/07/22 09:40:19;;;;;;;2.10;1.85;;;;;;;33.68;29.76;101147.81;5092805;28;20263;-72
2021/07/22 09:42:49;;;;;;;1.98;1.80;;;;;;;34.17;30.07;101142.66;5080043;28;20204;-72
2021/07/22 09:45:21;;;;;;;1.95;1.80;;;;;;;34.21;28.04;101141.91;5092414;28;20232;-67
2021/07/22 09:47:49;;;;;;;1.70;1.60;;;;;;;34.03;29.29;101144.94;5108900;28;20201;-72
2021/07/22 09:50:19;;;;;;;1.73;1.52;;;;;;;34.15;29.06;101142.91;5093290;28;20204;-67
2021/07/22 09:52:48;;;;;;;1.60;1.50;;;;;;;34.50;29.36;101122.34;5092879;28;20224;-67
2021/07/22 09:55:30;;;;;;;3.17;1.83;;;;;;;34.22;28.47;101129.66;5093190;28;20197;-72
2021/07/22 09:57:59;;;;;;;1.92;1.40;;;;;;;34.53;30.11;101139.44;5091691;28;20209;-72
2021/07/22 10:00:31;;;;;;;1.75;1.65;;;;;;;34.66;28.63;101143.84;5092141;28;20292;-67
2021/07/22 10:03:02;;;;;;;3.50;1.70;;;;;;;34.18;28.92;101119.25;5086454;28;20201;-72
2021/07/22 10:05:32;;;;;;;2.28;1.80;;;;;;;34.05;29.31;101137.16;5083495;28;20677;-72
2021/07/22 10:08:03;;;;;;;2.17;1.98;;;;;;;34.28;29.07;101140.91;5092199;28;20204;-72
2021/07/22 10:10:32;;;;;;;2.08;1.80;;;;;;;34.24;28.55;101138.59;5092291;28;20203;-72
2021/07/22 10:13:03;;;;;;;2.08;1.80;;;;;;;34.68;29.58;101126.84;5091480;28;20570;-72
2021/07/22 10:15:35;;;;;;;2.03;1.50;;;;;;;34.98;29.58;101138.53;5091962;28;20691;-72
2021/07/22 10:18:09;;;;;;;26.50;2.63;;;;;;;34.64;27.81;101134.03;5077535;28;20390;-72
2021/07/22 10:20:37;;;;;;;3.00;1.77;;;;;;;34.25;28.11;101081.72;5092889;28;20193;-67
2021/07/22 10:23:05;;;;;;;3.40;1.65;;;;;;;34.10;29.12;101117.72;5091536;28;20197;-65
2021/07/22 10:25:33;;;;;;;4.93;1.77;;;;;;;34.12;28.61;101125.84;5092681;28;20205;-67
2021/07/22 10:28:03;;;;;;;6.97;1.77;;;;;;;34.26;29.75;101097.38;5092370;28;20218;-67
2021/07/22 10:30:33;;;;;;;2.25;1.63;;;;;;;34.32;28.30;101122.59;5088596;28;20247;-67
2021/07/22 10:33:03;;;;;;;2.63;1.67;;;;;;;34.01;29.46;101108.09;5097788;28;20228;-67
2021/07/22 10:35:33;;;;;;;2.88;1.83;;;;;;;34.39;28.79;101114.94;5077499;28;20193;-67
2021/07/22 10:38:10;;;;;;;9.10;2.20;;;;;;;34.33;29.07;101115.91;5092113;28;20215;-67
2021/07/22 10:40:52;;;;;;;3.53;1.70;;;;;;;34.12;28.13;101107.16;5077840;28;20219;-72
2021/07/22 10:43:46;;;;;;;3.60;1.80;;;;;;;33.85;28.87;101114.44;5092632;28;20911;-72
2021/07/22 10:46:19;;;;;;;7.68;2.00;;;;;;;33.81;28.99;101114.06;5071989;28;20178;-72
2021/07/22 10:48:48;;;;;;;22.70;3.03;;;;;;;34.22;28.19;101121.28;5084973;28;20283;-72
2021/07/22 10:51:18;;;;;;;6.43;2.10;;;;;;;34.11;29.99;101088.75;5071567;28;20287;-73
2021/07/22 10:53:51;;;;;;;10.05;1.95;;;;;;;34.51;30.03;101091.41;5084847;28;20231;-67
2021/07/22 10:56:42;;;;;;;1.70;1.60;;;;;;;33.97;28.15;101078.97;5077670;28;20196;-67
2021/07/22 10:59:10;;;;;;;2.50;1.60;;;;;;;34.34;29.50;101089.72;5091155;28;20664;-67
2021/07/22 11:01:57;;;;;;;2.60;1.88;;;;;;;34.56;28.75;101099.84;5091714;28;20250;-67
2021/07/22 11:04:42;;;;;;;2.42;1.77;;;;;;;34.41;28.94;101091.25;5076803;28;20772;-67
2021/07/22 11:07:18;;;;;;;2.03;1.67;;;;;;;34.71;27.63;101085.31;5092278;28;20205;-67
2021/07/22 11:10:08;;;;;;;1.83;1.60;;;;;;;34.61;29.22;101074.00;5079547;28;20196;-67
2021/07/22 11:12:44;;;;;;;1.98;1.75;;;;;;;34.26;29.27;101077.84;5091042;28;20246;-72
2021/07/22 11:15:16;;;;;;;2.22;1.70;;;;;;;34.39;28.50;101087.03;5091445;28;20271;-72
2021/07/22 11:17:47;;;;;;;2.38;1.67;;;;;;;34.43;29.11;101071.47;5091172;28;20546;-72
2021/07/22 11:20:33;;;;;;;2.33;1.67;;;;;;;34.36;28.34;101066.06;5091611;28;20193;-72
2021/07/22 11:23:15;;;;;;;2.42;1.85;;;;;;;34.01;28.89;101069.03;5090362;28;20598;-72
2021/07/22 11:25:46;;;;;;;2.20;1.70;;;;;;;34.04;29.90;101073.28;5079853;28;20232;-73
2021/07/22 11:28:24;;;;;;;1.85;1.67;;;;;;;34.05;31.15;101070.22;5087410;28;20196;-72
2021/07/22 11:31:16;;;;;;;1.90;1.70;;;;;;;33.73;28.57;101069.03;5083405;28;20279;-67
2021/07/22 11:33:46;;;;;;;2.00;1.55;;;;;;;33.82;29.47;101071.16;5076122;28;20311;-66
2021/07/22 11:36:18;;;;;;;1.92;1.70;;;;;;;34.17;30.05;101059.84;5089994;28;21244;-67
2021/07/22 11:38:52;;;;;;;3.40;1.90;;;;;;;34.28;29.29;101051.63;5089828;28;20211;-67
2021/07/22 11:41:21;;;;;;;1.77;1.63;;;;;;;34.11;29.58;101057.22;5090146;28;20208;-67
2021/07/22 11:43:53;;;;;;;2.25;1.75;;;;;;;34.31;29.66;101060.38;5089532;28;20197;-67
2021/07/22 11:46:38;;;;;;;2.47;1.80;;;;;;;34.20;29.02;101059.31;5090038;28;20871;-67
2021/07/22 11:49:10;;;;;;;2.30;1.80;;;;;;;33.83;29.91;101046.94;5089401;28;20216;-67
2021/07/22 11:51:40;;;;;;;1.88;1.77;;;;;;;33.69;29.52;101045.56;5079591;28;20206;-67